Reno (UNR), Valley Road, Nevada Weather observations

Data are for observation ending at time listed.
 Day   Time    Ave.   Ave.  Ave.  Vector   Max.    Total    Solar   Rl      Baro.   Ave.  
  of    of     Air    Rel.  Wind   Wind    Wind   Precip.   Rad.    in      Pres.   Soil  
Year   Day     Temp.  Hum.  Speed  Dir.    Gust                                     Temp. 
2015   (PST)    F      %     mph   deg.    mph      in.     W/m2    W/m2     mb.     F   
-----------------------------------------------------------------------------------------
 245    5:10   52.9    56    0.0     0      0.0     0.00       0     306    856.3   74.7
 245    5:20   52.9    56    0.5   315      3.3     0.00       1     306    856.4   74.6
 245    5:30   51.8    58    0.3   273      2.5     0.00       3     311    856.5   74.4
 245    5:40   51.7    58    1.4   305      3.8     0.00       8     309    856.6   74.3
 245    5:50   52.2    56    0.0     0      0.0     0.00      17     310    856.6   74.2
 245    6:00   54.1    54    2.2   212      3.7     0.00      25     309    856.7   74.1
 245    6:10   56.1    51    0.1   245      2.0     0.00      66     310    856.7   74.0
 245    6:20   58.3    47    0.0     0      0.0     0.00     106     313    856.7   73.9
 245    6:30   59.6    46    0.0     0      0.0     0.00     137     316    856.7   73.8
 245    6:40   61.2    44    0.0     0      0.0     0.00     171     318    856.6   73.7
 245    6:50   62.2    42    0.1    77      1.8     0.00     201     323    856.5   73.6
 245    7:00   63.4    40    1.6    61      3.7     0.00     233     324    856.3   73.5
 245    7:10   63.8    40    1.8    66      3.7     0.00     267     328    856.1   73.4
 245    7:20   64.5    39    1.4    96      3.5     0.00     301     332    856.0   73.3
 245    7:30   65.5    38    1.2   105      3.5     0.00     336     334    855.9   73.3
 245    7:40   67.6    33    0.2   117      2.3     0.00     373     338    855.7   73.2
 245    7:50   69.2    30    0.2    40      2.4     0.00     409     342    855.5   73.2
 245    8:00   72.6    27    0.3    73      2.2     0.00     440     348    855.2   73.2
 245    8:10   72.5    27    0.3    61      2.6     0.00     471     354    855.0   73.2
 245    8:20   72.9    27    1.5    72      4.0     0.00     504     360    854.7   73.2
 245    8:30   74.1    26    0.6    68      3.0     0.00     535     359    854.5   73.2
 245    8:40   75.5    24    0.9    26      3.7     0.00     568     363    854.3   73.2
 245    8:50   75.2    23    1.9    13      6.0     0.00     597     366    854.1   73.2
 245    9:00   75.4    24    2.2    71      5.0     0.00     623     366    853.9   73.3
 245    9:10   75.8    23    2.1   332      4.9     0.00     651     367    853.6   73.3
 245    9:20   76.8    22    2.5    81      6.4     0.00     682     369    853.3   73.3
 245    9:30   77.3    22    3.5   118      7.2     0.00     709     373    853.2   73.4
 245    9:40   77.3    21    3.7    94      7.6     0.00     731     373    853.0   73.4
 245    9:50   77.4    22    4.6   115      8.5     0.00     751     375    852.8   73.5
 245   10:00   77.9    21    5.9   127     11.2     0.00     772     374    852.6   73.6
 245   10:10   78.6    20    5.5   121     10.5     0.00     791     375    852.4   73.7
 245   10:20   78.8    20    5.4   132      9.7     0.00     810     377    852.2   73.8
 245   10:30   79.1    20    4.8   123      9.4     0.00     827     378    852.0   73.9
 245   10:40   79.6    19    4.1   346      9.7     0.00     847     379    851.8   74.1
 245   10:50   79.6    19    2.6   347      6.1     0.00     861     378    851.5   74.3
 245   11:00   81.9    18    4.1   234     13.2     0.00     871     378    851.4   74.5
 245   11:10   81.1    17    9.6   254     17.3     0.00     892     382    851.1   74.8
 245   11:20   81.2    18    8.9   253     16.5     0.00     900     378    850.9   75.0
 245   11:30   81.2    17   10.5   265     23.0     0.00     907     378    850.7   75.3
 245   11:40   81.2    16   10.0   271     18.9     0.00     913     371    850.6   75.6
 245   11:50   82.1    16    9.7   258     16.3     0.00     920     381    850.5   75.9
 245   12:00   81.5    16   12.5   258     23.5     0.00     923     383    850.3   76.2
 245   12:10   81.6    16   12.1   258     20.6     0.00     921     383    850.4   76.5
 245   12:20   82.5    16   10.2   254     19.7     0.00     917     386    850.3   76.8
 245   12:30   82.2    16   10.7   270     21.9     0.00     915     387    850.2   77.1
 245   12:40   82.2    16   10.7   270     21.2     0.00     908     386    850.1   77.3
 245   12:50   82.8    16    9.3   260     20.6     0.00     902     387    850.1   77.6
 245   13:00   82.8    17   11.6   272     21.5     0.00     891     388    849.9   77.8
 245   13:10   83.2    16    9.0   268     18.4     0.00     878     388    849.8   78.1
 245   13:20   83.1    17   11.1   269     19.8     0.00     865     388    849.7   78.3
 245   13:30   82.8    17   11.1   268     20.4     0.00     850     388    849.6   78.5
 245   13:40   82.4    17   11.9   260     21.4     0.00     834     386    849.5   78.7
 245   13:50   82.9    17   11.2   267     19.6     0.00     818     388    849.4   78.8
 245   14:00   82.6    17   13.2   255     25.6     0.00     800     385    849.3   79.0
 245   14:10   82.7    17   12.2   259     20.5     0.00     780     384    849.2   79.1
 245   14:20   82.2    17   13.8   253     27.4     0.00     760     383    849.2   79.2
 245   14:30   82.1    17   12.6   257     23.5     0.00     739     384    849.1   79.4
 245   14:40   82.4    17   12.5   263     23.0     0.00     724     383    849.1   79.5
 245   14:50   81.5    17   12.6   271     23.2     0.00     712     384    849.0   79.6
 245   15:00   81.3    17   13.4   254     22.8     0.00     659     383    849.0   79.7
 245   15:10   81.0    17   14.6   258     24.3     0.00     629     383    849.0   79.8
 245   15:20   81.1    18   12.4   257     24.3     0.00     634     381    849.1   79.9
 245   15:30   81.2    18   12.8   260     25.9     0.00     596     384    849.2   80.0
 245   15:40   79.9    18   14.3   253     27.4     0.00     397     381    849.2   80.1
 245   15:50   80.0    18   12.1   258     21.8     0.00     466     383    849.2   80.2
 245   16:00   80.9    18   12.3   251     22.1     0.00     540     389    849.2   80.3
 245   16:10   80.0    18   13.5   256     27.7     0.00     441     388    849.2   80.4
 245   16:20   80.2    18   12.0   262     19.8     0.00     540     392    849.3   80.4
 245   16:30   79.6    18   13.0   264     24.0     0.00     465     391    849.3   80.5
 245   16:40   79.8    19   12.6   251     24.9     0.00     478     393    849.2   80.5
 245   16:50   79.4    19   11.8   258     22.9     0.00     422     390    849.3   80.6
 245   17:00   78.8    20   11.6   256     21.5     0.00     369     389    849.4   80.6
 245   17:10   78.6    20   10.6   259     20.4     0.00     325     385    849.4   80.7
 245   17:20   78.0    20    9.2   264     17.7     0.00     283     383    849.4   80.7
 245   17:30   77.6    20    9.3   263     18.6     0.00     219     380    849.5   80.7
 245   17:40   76.0    21    8.5   264     17.0     0.00      82     377    849.6   80.7
 245   17:50   75.3    22    9.4   270     17.5     0.00     140     367    849.7   80.7
 245   18:00   74.7    22    9.9   276     19.4     0.00      91     366    849.9   80.7
 245   18:10   73.7    23    8.1   279     17.7     0.00      38     364    850.1   80.7
 245   18:20   72.9    24   10.4   268     21.8     0.00      25     358    850.3   80.7
 245   18:30   72.3    24    8.0   271     16.5     0.00      14     355    850.6   80.7
 245   18:40   71.7    25    7.5   264     18.1     0.00       5     352    850.8   80.7
 245   18:50   71.2    26    9.4   265     18.7     0.00       1     350    851.0   80.6
 245   19:00   70.8    26    8.9   261     16.6     0.00       0     348    851.2   80.6
 245   19:10   70.3    27    8.6   260     18.1     0.00       0     346    851.4   80.5
 245   19:20   69.9    28    9.3   264     17.3     0.00       0     345    851.5   80.4
 245   19:30   69.5    29    8.5   262     17.1     0.00       0     343    851.7   80.3
 245   19:40   69.0    31    8.7   263     17.0     0.00       0     341    851.8   80.3
 245   19:50   68.7    32    9.4   260     19.8     0.00       0     340    852.0   80.2
 245   20:00   68.4    32    9.5   265     16.6     0.00       0     340    852.2   80.1
 245   20:10   68.1    32    9.5   268     17.5     0.00       0     338    852.3   80.0
 245   20:20   67.8    33   11.2   278     18.5     0.00       0     336    852.2   79.9
 245   20:30   67.7    33   11.9   283     22.2     0.00       0     332    852.2   79.8
 245   20:40   67.4    33   10.6   273     19.5     0.00       0     334    852.4   79.6
 245   20:50   67.2    34    9.4   267     19.7     0.00       0     335    852.4   79.5
 245   21:00   66.8    34    7.9   274     16.8     0.00       0     338    852.4   79.4
 245   21:10   66.9    33    8.5   269     17.3     0.00       0     334    852.4   79.3
 245   21:20   66.8    32    3.5   176      7.5     0.00       0     336    852.6   79.2
 245   21:30   66.6    32    4.0   125      7.8     0.00       0     341    852.7   79.1
 245   21:40   66.3    32    2.4   198      6.0     0.00       0     343    852.8   78.9
 245   21:50   65.3    33    1.2   302      2.6     0.00       0     338    852.8   78.8
 245   22:00   65.0    33    0.5   287      2.8     0.00       0     335    852.9   78.7
 245   22:10   65.6    32    1.4   235      4.7     0.00       0     334    852.9   78.6
 245   22:20   65.3    31    3.1   288     10.5     0.00       0     331    852.9   78.5
 245   22:30   66.5    31    7.6   287     15.0     0.00       0     330    852.9   78.4
 245   22:40   66.1    32    4.8   280     10.2     0.00       0     336    852.9   78.3
 245   22:50   65.9    31    3.3   217      6.1     0.00       0     339    852.9   78.1
 245   23:00   65.3    33    2.6   269      6.4     0.00       0     339    852.9   78.0
 245   23:10   64.2    35    2.7   207      5.4     0.00       0     336    853.0   77.9
 245   23:20   64.7    34    3.9   254      9.7     0.00       0     337    852.9   77.8
 245   23:30   65.5    32    6.4   237     12.9     0.00       0     340    852.9   77.7
 245   23:40   66.2    32    7.8   242     16.9     0.00       0     344    852.8   77.5
 245   23:50   66.0    32    5.2   221     14.3     0.00       0     346    852.8   77.4
 246    0:00   66.3    31    5.6   234     11.2     0.00       0     349    852.8   77.3
 246    0:10   66.2    32    5.7   242     10.2     0.00       0     346    852.8   77.2
 246    0:20   65.7    33    3.8   244      9.6     0.00       0     344    852.7   77.1
 246    0:30   65.0    34    4.0   150     10.6     0.00       0     346    852.7   77.0
 246    0:40   64.8    34    2.3   283      7.3     0.00       0     345    852.7   76.9
 246    0:50   64.4    35    2.6    68      8.0     0.00       0     344    852.7   76.8
 246    1:00   63.8    36    2.5    75      5.9     0.00       0     343    852.7   76.7
 246    1:10   62.9    37    1.4   337      3.7     0.00       0     342    852.8   76.6
 246    1:20   62.3    39    2.9   328      7.1     0.00       0     346    852.8   76.5
 246    1:30   61.8    39    1.9   288      7.0     0.00       0     345    852.8   76.4
 246    1:40   62.4    36    2.1   303      5.8     0.00       0     345    852.8   76.3
 246    1:50   63.1    34    3.1   297      6.2     0.00       0     347    852.8   76.2
 246    2:00   63.3    33    5.2   283     17.5     0.00       0     345    852.7   76.2
 246    2:10   65.8    29    7.3   257     15.0     0.00       0     343    852.7   76.0
 246    2:20   65.9    30    5.8   217     12.7     0.00       0     344    852.7   76.0
 246    2:30   66.1    29    9.3   273     16.0     0.00       0     345    852.6   75.9
 246    2:40   65.9    31    9.6   272     18.0     0.00       0     346    852.5   75.8
 246    2:50   65.9    32    9.9   272     21.6     0.00       0     340    852.5   75.7
 246    3:00   65.7    33    9.5   285     24.1     0.00       0     338    852.4   75.6
 246    3:10   66.8    30    9.9   266     20.9     0.00       0     340    852.3   75.5
 246    3:20   66.4    32    7.1   273     16.3     0.00       0     340    852.4   75.4
 246    3:30   65.3    33    4.9   271     11.6     0.00       0     337    852.3   75.4
 246    3:40   64.1    34    4.4   228      9.5     0.00       0     338    852.4   75.3
 246    3:50   63.2    34    2.3   210      7.6     0.00       0     335    852.5   75.2
 246    4:00   61.6    37    2.6   341      4.2     0.00       0     334    852.5   75.1
 246    4:10   60.9    38    3.3   229      6.7     0.00       0     335    852.6   75.1
 246    4:20   61.1    39    2.7   322      5.9     0.00       0     334    852.7   75.0
 246    4:30   59.8    41    1.1     7      3.9     0.00       0     333    852.6   74.9
 246    4:40   59.7    41    0.6    71      3.3     0.00       0     336    852.6   74.9
 246    4:50   60.3    40    2.4    62      6.4     0.00       0     336    852.7   74.8
 246    5:00   60.7    39    3.0    60      6.2     0.00       0     339    852.7   74.7

Return to Reno (UNR), Nevada graphs page.


Western Regional Climate Center,wrcc@dri.edu